• Join FlightAware (Why Join?)
  • Login
  • US Flag 
10:52AM EDT


 

Airport Tracker/Info


-or-


 

Live Flight TrackerFlight Track Log ✈ BAW196 ✈ 03-Oct-2013 ✈ KIAH - EGLL / LHR

Flight Track Log - Related Links

Times and Time Zones

All times are in EDT time to prevent confusion due to time zone crossing. See the BAW196 flight status page for this flight to view local times or setup timezone preferences in your user account.

Time Position Orientation Groundspeed Altitude Reporting Facility
EDT Latitude Longitude Course Direction KTS MPH feet Rate Location/Type
09:48PM 29.9801 -95.3531 270° West 115 132  Level FlightAware ADS-B
09:49PM 29.9697 -95.3468 152° Southeast 175 201 200 1,440 Climbing FlightAware ADS-B
09:49PM 29.9579 -95.3397 152° Southeast 179 206 800 2,520 Climbing FlightAware ADS-B
09:49PM 29.9513 -95.3350 148° Southeast 175 201 1,300 2,520 Climbing FlightAware ADS-B
09:49PM 29.9491 -95.3328 139° Southeast 175 201 1,400 1,680 Climbing FlightAware ADS-B
09:49PM 29.9474 -95.3305 130° Southeast 175 201 1,500 1,680 Climbing FlightAware ADS-B
09:49PM 29.9457 -95.3273 122° Southeast 177 204 1,600 1,680 Climbing FlightAware ADS-B
09:49PM 29.9446 -95.3245 114° Southeast 183 211 1,700 960 Climbing FlightAware ADS-B
09:49PM 29.9437 -95.3213 108° East 186 214 1,700 840 Level FlightAware ADS-B
09:50PM 29.9430 -95.3175 102° East 193 222 1,800 840 Climbing FlightAware ADS-B
09:50PM 29.9425 -95.3070 93° East 206 237 1,900 420 Climbing FlightAware ADS-B
09:50PM 29.9430 -95.3026 83° East 214 246 1,900 660 Level FlightAware ADS-B
09:50PM 29.9444 -95.2971 74° East 222 255 2,000 1,320 Climbing FlightAware ADS-B
09:50PM 29.9463 -95.2926 64° Northeast 228 262 2,100 1,680 Climbing FlightAware ADS-B
09:50PM 29.9485 -95.2889 56° Northeast 231 266 2,200 1,680 Climbing FlightAware ADS-B
09:50PM 29.9507 -95.2860 49° Northeast 235 270 2,300 1,680 Climbing FlightAware ADS-B
09:50PM 29.9535 -95.2831 42° Northeast 236 272 2,400 2,160 Climbing FlightAware ADS-B
09:50PM 29.9605 -95.2780 32° Northeast 238 274 2,700 2,160 Climbing FlightAware ADS-B
09:50PM 29.9642 -95.2761 24° Northeast 239 275 2,800 1,800 Climbing FlightAware ADS-B
09:50PM 29.9715 -95.2734 18° North 244 281 3,000 1,680 Climbing FlightAware ADS-B
09:50PM 29.9788 -95.2717 11° North 248 285 3,200 1,080 Climbing FlightAware ADS-B
09:51PM 29.9842 -95.2711 North 252 290 3,200 960 Level FlightAware ADS-B
09:51PM 29.9927 -95.2704 North 258 297 3,400 1,800 Climbing FlightAware ADS-B
09:51PM 30.0112 -95.2697 North 264 304 3,900 1,920 Climbing FlightAware ADS-B
09:51PM 30.0308 -95.2690 North 270 311 4,400 1,740 Climbing FlightAware ADS-B
09:51PM 30.0504 -95.2684 North 278 320 4,800 1,920 Climbing FlightAware ADS-B
09:52PM 30.0673 -95.2676 North 280 322 5,300 2,100 Climbing FlightAware ADS-B
09:52PM 30.0870 -95.2665 North 281 323 5,800 1,920 Climbing FlightAware ADS-B
09:52PM 30.1073 -95.2649 North 286 329 6,300 2,220 Climbing FlightAware ADS-B
09:52PM 30.1221 -95.2637 North 287 330 6,800 2,280 Climbing FlightAware ADS-B
09:53PM 30.1420 -95.2621 North 286 329 7,300 2,160 Climbing FlightAware ADS-B
09:53PM 30.1512 -95.2611 North 287 330 7,600 2,100 Climbing FlightAware ADS-B
09:53PM 30.1610 -95.2591 10° North 291 335 7,800 1,800 Climbing FlightAware ADS-B
09:53PM 30.1652 -95.2578 15° North 291 335 7,900 1,500 Climbing FlightAware ADS-B
09:53PM 30.1711 -95.2555 19° North 293 337 8,000 1,680 Climbing FlightAware ADS-B
09:53PM 30.1918 -95.2461 21° North 296 341 8,500 2,040 Climbing FlightAware ADS-B
09:54PM 30.2127 -95.2370 21° North 298 343 9,100 1,860 Climbing FlightAware ADS-B
09:54PM 30.2335 -95.2287 19° North 303 349 9,500 1,500 Climbing FlightAware ADS-B
09:54PM 30.2539 -95.2206 19° North 308 354 9,900 1,260 Climbing FlightAware ADS-B
09:54PM 30.2892 -95.2054 20° North 324 373 10,400 960 Climbing FlightAware ADS-B
09:55PM 30.3331 -95.1864 20° North 344 396 10,800 840 Climbing FlightAware ADS-B
09:55PM 30.3808 -95.1656 21° North 368 423 11,300 1,140 Climbing FlightAware ADS-B
09:56PM 30.4292 -95.1445 21° North 374 430 12,000 1,560 Climbing FlightAware ADS-B
09:56PM 30.4784 -95.1229 21° North 377 434 12,900 1,560 Climbing FlightAware ADS-B
09:57PM 30.5282 -95.1011 21° North 382 440 13,600 1,440 Climbing FlightAware ADS-B
09:57PM 30.5685 -95.0832 21° North 387 445 14,200 1,380 Climbing FlightAware ADS-B
09:58PM 30.6051 -95.0643 24° Northeast 391 450 14,700 1,200 Climbing FlightAware ADS-B
09:58PM 30.6549 -95.0342 27° Northeast 400 460 15,300 960 Climbing FlightAware ADS-B
09:59PM 30.7083 -95.0008 28° Northeast 416 479 15,700 900 Climbing FlightAware ADS-B
09:59PM 30.7602 -94.9683 28° Northeast 424 488 16,300 1,140 Climbing FlightAware ADS-B
10:00PM 30.8146 -94.9344 28° Northeast 430 495 16,900 1,200 Climbing FlightAware ADS-B
10:00PM 30.8697 -94.9001 28° Northeast 433 498 17,600 1,320 Climbing FlightAware ADS-B
10:01PM 30.9230 -94.8669 28° Northeast 437 503 18,300 1,320 Climbing FlightAware ADS-B
10:01PM 30.9798 -94.8314 28° Northeast 438 504 19,000 1,200 Climbing FlightAware ADS-B
10:02PM 31.0354 -94.7966 28° Northeast 441 507 19,600 1,260 Climbing FlightAware ADS-B
10:02PM 31.0900 -94.7624 28° Northeast 439 505 20,300 1,260 Climbing FlightAware ADS-B
10:03PM 31.1437 -94.7286 28° Northeast 440 506 20,900 1,200 Climbing FlightAware ADS-B
10:03PM 31.1976 -94.6938 29° Northeast 442 509 21,500 1,140 Climbing FlightAware ADS-B
10:04PM 31.2538 -94.6543 31° Northeast 442 509 22,100 1,080 Climbing FlightAware ADS-B
10:04PM 31.3091 -94.6154 31° Northeast 445 512 22,700 960 Climbing FlightAware ADS-B
10:05PM 31.3682 -94.5743 31° Northeast 446 513 23,200 780 Climbing FlightAware ADS-B
10:06PM 31.4281 -94.5329 31° Northeast 452 520 23,600 720 Climbing FlightAware ADS-B
10:06PM 31.5034 -94.4808 31° Northeast 457 526 24,100 660 Climbing FlightAware ADS-B
10:07PM 31.5666 -94.4370 31° Northeast 465 535 24,500 720 Climbing FlightAware ADS-B
10:07PM 31.6244 -94.3968 31° Northeast 467 537 24,900 780 Climbing FlightAware ADS-B
10:08PM 31.6805 -94.3577 31° Northeast 472 543 25,300 840 Climbing FlightAware ADS-B
10:08PM 31.7418 -94.3148 31° Northeast 475 547 25,800 840 Climbing FlightAware ADS-B
10:09PM 31.8013 -94.2732 31° Northeast 478 550 26,200 840 Climbing FlightAware ADS-B
10:09PM 31.8592 -94.2327 31° Northeast 479 551 26,700 900 Climbing FlightAware ADS-B
10:10PM 31.9383 -94.1772 31° Northeast 480 552 27,300 900 Climbing FlightAware ADS-B
10:11PM 31.9962 -94.1365 31° Northeast 484 557 27,800 900 Climbing FlightAware ADS-B
10:11PM 32.0544 -94.0955 31° Northeast 486 559 28,200 720 Climbing FlightAware ADS-B
10:13PM 32.2402 -93.9643 31° Northeast 496 571 29,400 720 Climbing FlightAware ADS-B
10:14PM 32.3434 -93.8911 31° Northeast 496 571 30,100 180 Climbing FlightAware ADS-B
10:14PM 32.4020 -93.8490 31° Northeast 497 572 29,700 960 Descending FlightAware
10:14PM 32.4426 -93.8205 31° Northeast 501 577 30,900 2,220 Climbing FlightAware ADS-B
10:15PM 32.5303 -93.7580 31° Northeast 499 574 31,600 -720 Climbing FlightAware ADS-B
10:16PM 32.5830 -93.7210 31° Northeast 497 572 29,700 600 Descending FlightAware
10:17PM 32.7300 -93.6150 31° Northeast 503 579 32,700 2,100 Climbing FlightAware
10:17PM 32.7910 -93.5720 31° Northeast 503 579 32,700 840 Level FlightAware
10:18PM 32.8770 -93.5100 31° Northeast 511 588 33,700 900 Climbing FlightAware
10:19PM 32.9470 -93.4590 31° Northeast 512 589 33,800 60 Climbing FlightAware
10:19PM 33.0090 -93.4150 31° Northeast 512 589 33,800 960 Level FlightAware
10:20PM 33.0930 -93.3270 41° Northeast 515 593 35,000 960 Climbing FlightAware
10:21PM 33.1628 -93.2534 41° Northeast 515 593 35,000  Level FlightAware ADS-B
10:21PM 33.2130 -93.2010 41° Northeast 514 592 35,000  Level FlightAware
10:22PM 33.2753 -93.1336 42° Northeast 515 593 35,000  Level FlightAware ADS-B
10:22PM 33.3509 -93.0527 42° Northeast 515 593 35,000  Level FlightAware ADS-B
10:23PM 33.3780 -93.0290 36° Northeast 514 592 35,000  Level FlightAware
10:24PM 33.4330 -92.9720 41° Northeast 514 592 35,000  Level FlightAware
10:24PM 33.4880 -92.9150 41° Northeast 514 592 35,000  Level FlightAware
10:25PM 33.5450 -92.8560 41° Northeast 514 592 35,000  Level FlightAware
10:25PM 33.5990 -92.7990 41° Northeast 514 592 35,000  Level FlightAware
10:26PM 33.6540 -92.7420 41° Northeast 514 592 35,000  Level FlightAware
10:27PM 33.7090 -92.6840 41° Northeast 514 592 35,000  Level FlightAware
10:27PM 33.7640 -92.6270 41° Northeast 514 592 35,000  Level FlightAware
10:28PM 33.8210 -92.5680 41° Northeast 514 592 35,000  Level FlightAware
10:28PM 33.8760 -92.5100 41° Northeast 514 592 35,000  Level FlightAware
10:29PM 34.0570 -92.2890 45° Northeast 512 589 35,000  Level FlightAware
10:30PM 34.1180 -92.2220 42° Northeast 513 590 35,000  Level FlightAware
10:30PM 34.1740 -92.1600 42° Northeast 512 589 35,000  Level FlightAware
10:31PM 34.2370 -92.0920 42° Northeast 511 588 35,000  Level FlightAware
10:31PM 34.2980 -92.0240 43° Northeast 511 588 35,000  Level FlightAware
10:32PM 34.3590 -91.9580 42° Northeast 511 588 35,000  Level FlightAware
10:33PM 34.4320 -91.8760 43° Northeast 510 587 35,000  Level FlightAware
10:33PM 34.4950 -91.8070 42° Northeast 511 588 35,000  Level FlightAware
10:34PM 34.5570 -91.7380 42° Northeast 511 588 35,000  Level FlightAware
10:34PM 34.6210 -91.6670 42° Northeast 510 587 35,000  Level FlightAware
10:35PM 34.6760 -91.6050 43° Northeast 510 587 35,000  Level FlightAware
10:36PM 34.7410 -91.5320 43° Northeast 510 587 35,000  Level FlightAware
10:36PM 34.8050 -91.4610 42° Northeast 510 587 35,000  Level FlightAware
10:37PM 34.8580 -91.4020 42° Northeast 510 587 35,000  Level FlightAware
10:37PM 34.9230 -91.3300 42° Northeast 509 586 35,000  Level FlightAware
10:38PM 34.9780 -91.2670 43° Northeast 508 585 35,000  Level FlightAware
10:38PM 35.0420 -91.1950 43° Northeast 507 583 35,000  Level FlightAware
10:39PM 35.1040 -91.1250 43° Northeast 508 585 35,000  Level FlightAware
10:40PM 35.1890 -91.0300 42° Northeast 508 585 35,000  Level FlightAware
10:40PM 35.2420 -90.9720 42° Northeast 508 585 35,000  Level FlightAware
10:41PM 35.3360 -90.8640 43° Northeast 505 581 35,000  Level FlightAware
10:42PM 35.3890 -90.8050 42° Northeast 505 581 35,000  Level FlightAware
10:43PM 35.4420 -90.7460 42° Northeast 505 581 35,000  Level FlightAware
10:43PM 35.4920 -90.6910 42° Northeast 505 581 35,000  Level FlightAware
10:44PM 35.5450 -90.6320 42° Northeast 505 581 35,000  Level FlightAware
10:44PM 35.5990 -90.5730 42° Northeast 505 581 35,000  Level FlightAware
10:45PM 35.6520 -90.5140 42° Northeast 505 581 35,000  Level FlightAware
10:46PM 35.7050 -90.4550 42° Northeast 505 581 35,000  Level FlightAware
10:46PM 35.7580 -90.3970 42° Northeast 505 581 35,000  Level FlightAware
10:47PM 35.8110 -90.3380 42° Northeast 505 581 35,000  Level FlightAware
10:47PM 35.8660 -90.2770 42° Northeast 505 581 35,000  Level FlightAware
10:48PM 36.0080 -90.0870 47° Northeast 500 575 35,000  Level FlightAware
10:49PM 36.0660 -90.0210 43° Northeast 500 575 35,000  Level FlightAware
10:49PM 36.1410 -89.9320 44° Northeast 498 573 35,000  Level FlightAware
10:50PM 36.1890 -89.8750 44° Northeast 498 573 35,000  Level FlightAware
10:50PM 36.2550 -89.7980 43° Northeast 498 573 35,000  Level FlightAware
10:51PM 36.3100 -89.7330 44° Northeast 497 572 35,000  Level FlightAware
10:52PM 36.3750 -89.6560 44° Northeast 496 571 35,000  Level FlightAware
10:52PM 36.4270 -89.5950 43° Northeast 497 572 35,000  Level FlightAware
10:53PM 36.4880 -89.5230 43° Northeast 496 571 35,000  Level FlightAware
10:53PM 36.5450 -89.4540 44° Northeast 495 570 35,000  Level FlightAware
10:54PM 36.6040 -89.3840 44° Northeast 495 570 35,000  Level FlightAware
10:54PM 36.6630 -89.3140 44° Northeast 495 570 35,000  Level FlightAware
10:55PM 36.7170 -89.2490 44° Northeast 496 571 35,000  Level FlightAware
10:56PM 36.7790 -89.1750 44° Northeast 495 570 35,000  Level FlightAware
10:56PM 36.8380 -89.1040 44° Northeast 496 571 35,000  Level FlightAware
10:57PM 36.8900 -89.0410 44° Northeast 496 571 35,000  Level FlightAware
10:57PM 36.9510 -88.9670 44° Northeast 497 572 35,000  Level FlightAware
10:58PM 37.0100 -88.8960 44° Northeast 498 573 35,000  Level FlightAware
10:58PM 37.0630 -88.8320 44° Northeast 497 572 35,000  Level FlightAware
10:59PM 37.1220 -88.7590 45° Northeast 497 572 35,000  Level FlightAware
11:00PM 37.1820 -88.6870 44° Northeast 497 572 35,000  Level FlightAware
11:00PM 37.2410 -88.6140 45° Northeast 497 572 35,000  Level FlightAware
11:01PM 37.2970 -88.5460 44° Northeast 498 573 35,000  Level FlightAware
11:01PM 37.3540 -88.4770 44° Northeast 497 572 35,000  Level FlightAware
11:02PM 37.4120 -88.4040 45° Northeast 497 572 35,000  Level FlightAware
11:03PM 37.4740 -88.3290 44° Northeast 496 571 35,000  Level FlightAware
11:03PM 37.5280 -88.2620 45° Northeast 497 572 35,000  Level FlightAware
11:04PM 37.5860 -88.1890 45° Northeast 498 573 35,000  Level FlightAware
11:04PM 37.6450 -88.1160 44° Northeast 500 575 35,000  Level FlightAware
11:05PM 37.6970 -88.0520 44° Northeast 500 575 35,000  Level FlightAware
11:05PM 37.7570 -87.9770 45° Northeast 499 574 35,000  Level FlightAware
11:06PM 37.8190 -87.8990 45° Northeast 497 572 35,000  Level FlightAware
11:07PM 37.8750 -87.8300 44° Northeast 497 572 35,000  Level FlightAware
11:07PM 37.9260 -87.7660 45° Northeast 496 571 35,000  Level FlightAware
11:08PM 37.9830 -87.6820 49° Northeast 503 579 35,000  Level FlightAware
11:08PM 38.0300 -87.6060 52° Northeast 503 579 35,000  Level FlightAware
11:09PM 38.0810 -87.5220 52° Northeast 501 577 35,000  Level FlightAware
11:10PM 38.1260 -87.4500 52° Northeast 501 577 35,000  Level FlightAware
11:10PM 38.1820 -87.3630 51° Northeast 501 577 35,000  Level FlightAware
11:11PM 38.2470 -87.2610 51° Northeast 501 577 35,000  Level FlightAware
11:11PM 38.2920 -87.1890 51° Northeast 500 575 35,000  Level FlightAware
11:12PM 38.3490 -87.1000 51° Northeast 500 575 35,000  Level FlightAware
11:13PM 38.3950 -87.0270 51° Northeast 501 577 35,000  Level FlightAware
11:13PM 38.4460 -86.9450 52° Northeast 502 578 35,000  Level FlightAware
11:14PM 38.4950 -86.8670 51° Northeast 500 575 35,000  Level FlightAware
11:14PM 38.5470 -86.7830 52° Northeast 499 574 35,000  Level FlightAware
11:15PM 38.5980 -86.7020 51° Northeast 498 573 35,000  Level FlightAware
11:16PM 38.6510 -86.6150 52° Northeast 498 573 35,000  Level FlightAware
11:16PM 38.7030 -86.5320 51° Northeast 496 571 35,000  Level FlightAware
11:17PM 38.7590 -86.4410 52° Northeast 493 567 35,000  Level FlightAware
11:17PM 38.8010 -86.3720 52° Northeast 493 567 35,000  Level FlightAware
11:18PM 38.8520 -86.2890 52° Northeast 492 566 35,000  Level FlightAware
11:19PM 38.9060 -86.2010 52° Northeast 494 568 35,000  Level FlightAware
11:19PM 38.9540 -86.1220 52° Northeast 495 570 35,000  Level FlightAware
11:20PM 39.0120 -86.0270 52° Northeast 498 573 35,000  Level FlightAware
11:20PM 39.0650 -85.9390 52° Northeast 496 571 35,000  Level FlightAware
11:21PM 39.1160 -85.8550 52° Northeast 492 566 35,000  Level FlightAware
11:22PM 39.1560 -85.7890 52° Northeast 491 565 35,000  Level FlightAware
11:22PM 39.2080 -85.7020 52° Northeast 490 564 35,000  Level FlightAware
11:23PM 39.2580 -85.6200 52° Northeast 490 564 35,000  Level FlightAware
11:23PM 39.3100 -85.5330 52° Northeast 491 565 35,000  Level FlightAware
11:24PM 39.3590 -85.4560 51° Northeast 492 566 35,000  Level FlightAware
11:25PM 39.4130 -85.3750 49° Northeast 494 568 35,000  Level FlightAware
11:25PM 39.4590 -85.3060 49° Northeast 494 568 35,000  Level FlightAware
11:26PM 39.5130 -85.2240 50° Northeast 493 567 35,000  Level FlightAware
11:26PM 39.5550 -85.1490 54° Northeast 495 570 35,000  Level FlightAware
11:27PM 39.6040 -85.0520 57° Northeast 496 571 35,000  Level FlightAware
11:27PM 39.6460 -84.9650 58° Northeast 497 572 35,000  Level FlightAware
11:28PM 39.6880 -84.8780 58° Northeast 496 571 35,000  Level FlightAware
11:29PM 39.7300 -84.7900 58° Northeast 494 568 35,000  Level FlightAware
11:29PM 39.7690 -84.7070 59° Northeast 493 567 35,000  Level FlightAware
11:30PM 39.8100 -84.6210 58° Northeast 491 565 35,000  Level FlightAware
11:30PM 39.8510 -84.5340 58° Northeast 489 563 35,000  Level FlightAware
11:31PM 39.8940 -84.4420 59° Northeast 493 567 35,000  Level FlightAware
11:31PM 39.9310 -84.3620 59° Northeast 496 571 35,000  Level FlightAware
11:32PM 39.9840 -84.2500 58° Northeast 499 574 35,000  Level FlightAware
11:33PM 40.0250 -84.1620 59° Northeast 500 575 35,000  Level FlightAware
11:33PM 40.0690 -84.0670 59° Northeast 500 575 35,000  Level FlightAware
11:34PM 40.1100 -83.9780 59° Northeast 498 573 35,000  Level FlightAware
11:34PM 40.1490 -83.8940 59° Northeast 495 570 35,000  Level FlightAware
11:35PM 40.1900 -83.8050 59° Northeast 489 563 35,000  Level FlightAware
11:36PM 40.2330 -83.7130 59° Northeast 489 563 35,000  Level FlightAware
11:36PM 40.2750 -83.6200 59° Northeast 488 562 35,000  Level FlightAware
11:37PM 40.3210 -83.5210 59° Northeast 489 563 35,000  Level FlightAware
11:37PM 40.3630 -83.4280 59° Northeast 489 563 35,000  Level FlightAware
11:38PM 40.4040 -83.3370 59° Northeast 489 563 35,000  Level FlightAware
11:39PM 40.4430 -83.2510 59° Northeast 489 563 35,000  Level FlightAware
11:39PM 40.4830 -83.1640 59° Northeast 489 563 35,000 240 Level FlightAware
11:40PM 40.5240 -83.0710 60° Northeast 491 565 35,300 540 Climbing FlightAware
11:40PM 40.5650 -82.9800 59° Northeast 493 567 35,700 720 Climbing FlightAware
11:41PM 40.6010 -82.9010 59° Northeast 493 567 36,100 780 Climbing FlightAware
11:42PM 40.6470 -82.8030 58° Northeast 490 564 36,600 600 Climbing FlightAware
11:42PM 40.6890 -82.7190 57° Northeast 489 563 36,900 300 Climbing FlightAware
11:43PM 40.7380 -82.6240 56° Northeast 490 564 37,000 60 Climbing FlightAware
11:43PM 40.7830 -82.5360 56° Northeast 489 563 37,000  Level FlightAware
11:44PM 40.8320 -82.4390 56° Northeast 488 562 37,000  Level FlightAware
11:45PM 40.8770 -82.3500 56° Northeast 488 562 37,000  Level FlightAware
11:45PM 40.9200 -82.2660 56° Northeast 488 562 37,000  Level FlightAware
11:46PM 40.9670 -82.1730 56° Northeast 492 566 37,000  Level FlightAware
11:46PM 41.0070 -82.0930 56° Northeast 492 566 37,000  Level FlightAware
11:47PM 41.0500 -82.0060 57° Northeast 493 567 37,000  Level FlightAware
11:48PM 41.0980 -81.9100 56° Northeast 493 567 37,000  Level FlightAware
11:48PM 41.1420 -81.8210 57° Northeast 492 566 37,000  Level FlightAware
11:49PM 41.1820 -81.7400 57° Northeast 493 567 37,000  Level FlightAware
11:49PM 41.2270 -81.6490 57° Northeast 495 570 37,000  Level FlightAware
11:50PM 41.2680 -81.5660 57° Northeast 495 570 37,000  Level FlightAware
11:50PM 41.3180 -81.4640 57° Northeast 498 573 37,000  Level FlightAware
11:51PM 41.3580 -81.3840 56° Northeast 501 577 37,000  Level FlightAware
11:52PM 41.4040 -81.2900 57° Northeast 503 579 37,000  Level FlightAware
11:52PM 41.4490 -81.1970 57° Northeast 503 579 37,000  Level FlightAware
11:53PM 41.4940 -81.1040 57° Northeast 506 582 37,000  Level FlightAware
11:53PM 41.5400 -81.0100 57° Northeast 508 585 37,000  Level FlightAware
11:54PM 41.5870 -80.9110 58° Northeast 508 585 37,000  Level FlightAware
11:55PM 41.6270 -80.8280 57° Northeast 507 583 37,000  Level FlightAware
11:55PM 41.6720 -80.7340 57° Northeast 504 580 37,000  Level FlightAware
11:56PM 41.7170 -80.6400 57° Northeast 504 580 37,000  Level FlightAware
11:56PM 41.7570 -80.5570 57° Northeast 503 579 37,000  Level FlightAware
11:57PM 41.8040 -80.4570 58° Northeast 503 579 37,000  Level FlightAware
11:58PM 41.8500 -80.3610 57° Northeast 502 578 37,000  Level FlightAware
11:58PM 41.8880 -80.2790 58° Northeast 501 577 37,000  Level FlightAware
11:59PM 41.9320 -80.1870 57° Northeast 501 577 37,000  Level FlightAware
11:59PM 41.9770 -80.0900 58° Northeast 501 577 37,000  Level FlightAware
12:00AM 42.0170 -80.0050 58° Northeast 501 577 37,000  Level FlightAware
12:00AM 42.0620 -79.9090 58° Northeast 501 577 37,000  Level FlightAware
12:01AM 42.1050 -79.8170 58° Northeast 500 575 37,000  Level FlightAware
12:02AM 42.1480 -79.7250 58° Northeast 501 577 37,000  Level FlightAware
12:02AM 42.1920 -79.6290 58° Northeast 502 578 37,000  Level FlightAware
12:03AM 42.2350 -79.5360 58° Northeast 502 578 37,000  Level FlightAware
12:03AM 42.2810 -79.4360 58° Northeast 504 580 37,000  Level FlightAware
12:04AM 42.3200 -79.3510 58° Northeast 504 580 37,000  Level FlightAware
12:04AM 42.3590 -79.2640 59° Northeast 504 580 37,000  Level FlightAware
12:05AM 42.4070 -79.1580 58° Northeast 505 581 37,000  Level FlightAware
12:06AM 42.4410 -79.0840 58° Northeast 505 581 37,000  Level FlightAware
12:06AM 42.4800 -78.9970 59° Northeast 507 583 37,000  Level FlightAware
12:07AM 42.5270 -78.8940 58° Northeast 507 583 37,000  Level FlightAware
12:07AM 42.5690 -78.7990 59° Northeast 507 583 37,000  Level FlightAware
12:08AM 42.6100 -78.7090 58° Northeast 506 582 37,000  Level FlightAware
12:08AM 42.6530 -78.6110 59° Northeast 505 581 37,000  Level FlightAware
12:09AM 42.6950 -78.5180 58° Northeast 505 581 37,000  Level FlightAware
12:10AM 42.7400 -78.4170 59° Northeast 505 581 37,000  Level FlightAware
12:10AM 42.7750 -78.3370 59° Northeast 505 581 37,000  Level FlightAware
12:11AM 42.8290 -78.2160 59° Northeast 505 581 37,000  Level FlightAware
12:11AM 42.8720 -78.1160 60° Northeast 507 583 37,000  Level FlightAware
12:12AM 42.9140 -78.0220 59° Northeast 504 580 37,000  Level FlightAware
12:13AM 42.9560 -77.9250 59° Northeast 504 580 37,000  Level FlightAware
12:13AM 42.9900 -77.8470 59° Northeast 505 581 37,000  Level FlightAware
12:14AM 43.0380 -77.7350 60° Northeast 504 580 37,000  Level FlightAware
12:14AM 43.0800 -77.6370 60° Northeast 504 580 37,000  Level FlightAware
12:15AM 43.1230 -77.5390 59° Northeast 507 583 37,000  Level FlightAware
12:16AM 43.1650 -77.4400 60° Northeast 508 585 37,000  Level FlightAware
12:16AM 43.2030 -77.3510 60° Northeast 509 586 37,000  Level FlightAware
12:17AM 43.2440 -77.2550 60° Northeast 511 588 37,000  Level FlightAware
12:17AM 43.2890 -77.1500 59° Northeast 512 589 37,000  Level FlightAware
12:18AM 43.3310 -77.0500 60° Northeast 514 592 37,000  Level FlightAware
12:18AM 43.3700 -76.9570 60° Northeast 513 590 37,000  Level FlightAware
12:19AM 43.4120 -76.8580 60° Northeast 512 589 37,000  Level FlightAware
12:20AM 43.4550 -76.7560 60° Northeast 512 589 37,000  Level FlightAware
12:20AM 43.4980 -76.6530 60° Northeast 512 589 37,000  Level FlightAware
12:21AM 43.5350 -76.5630 60° Northeast 512 589 37,000  Level FlightAware
12:21AM 43.5760 -76.4640 60° Northeast 510 587 37,000  Level FlightAware
12:22AM 43.6170 -76.3660 60° Northeast 509 586 37,000  Level FlightAware
12:23AM 43.6590 -76.2640 60° Northeast 509 586 37,000  Level FlightAware
12:23AM 43.7000 -76.1640 60° Northeast 509 586 37,000  Level FlightAware
12:24AM 43.7390 -76.0670 61° Northeast 508 585 37,000  Level FlightAware
12:24AM 43.7780 -75.9720 60° Northeast 509 586 37,000  Level FlightAware
12:25AM 43.8190 -75.8700 61° Northeast 509 586 37,000  Level FlightAware
12:25AM 43.8620 -75.7660 60° Northeast 509 586 37,000  Level FlightAware
12:26AM 43.8980 -75.6760 61° Northeast 509 586 37,000  Level FlightAware
12:27AM 43.9390 -75.5740 61° Northeast 510 587 37,000  Level FlightAware
12:27AM 43.9800 -75.4710 61° Northeast 509 586 37,000  Level FlightAware
12:28AM 44.0210 -75.3690 61° Northeast 510 587 37,000  Level FlightAware
12:28AM 44.0550 -75.2820 61° Northeast 510 587 37,000  Level FlightAware
12:29AM 44.0990 -75.1730 61° Northeast 509 586 37,000  Level FlightAware
12:30AM 44.1410 -75.0650 62° Northeast 510 587 37,000  Level FlightAware
12:30AM 44.1780 -74.9720 61° Northeast 511 588 37,000  Level FlightAware
12:31AM 44.2180 -74.8710 61° Northeast 511 588 37,000  Level FlightAware
12:31AM 44.2580 -74.7660 62° Northeast 513 590 37,000  Level FlightAware
12:32AM 44.2970 -74.6680 61° Northeast 514 592 37,000  Level FlightAware
12:32AM 44.3380 -74.5610 62° Northeast 514 592 37,000  Level FlightAware
12:33AM 44.3770 -74.4590 62° Northeast 514 592 37,000  Level FlightAware
12:34AM 44.4140 -74.3630 62° Northeast 514 592 37,000  Level FlightAware
12:34AM 44.4540 -74.2480 64° Northeast 518 596 37,000  Level FlightAware
12:35AM 44.4860 -74.1490 66° East 518 596 37,000  Level FlightAware
12:35AM 44.5190 -74.0500 65° Northeast 519 597 37,000  Level FlightAware
12:36AM 44.5570 -73.9350 65° Northeast 519 597 37,000  Level FlightAware
12:37AM 44.5930 -73.8260 65° Northeast 520 598 37,000  Level FlightAware
12:37AM 44.6270 -73.7240 65° Northeast 520 598 37,000  Level FlightAware
12:38AM 44.6630 -73.6150 65° Northeast 522 601 37,000  Level FlightAware
12:38AM 44.7000 -73.5050 65° Northeast 523 602 37,000  Level FlightAware
12:39AM 44.7330 -73.4040 65° Northeast 524 603 37,000  Level FlightAware
12:39AM 44.7680 -73.2960 65° Northeast 524 603 37,000  Level FlightAware
12:40AM 44.8060 -73.1790 65° Northeast 524 603 37,000  Level FlightAware
12:41AM 44.8430 -73.0640 66° East 524 603 37,000  Level FlightAware
12:41AM 44.8740 -72.9670 66° East 525 604 37,000  Level FlightAware
12:42AM 44.9120 -72.8480 66° East 525 604 37,000  Level FlightAware
12:42AM 44.9430 -72.7490 66° East 525 604 37,000  Level FlightAware
12:43AM 44.9760 -72.6480 65° Northeast 526 605 37,000  Level FlightAware
12:44AM 45.0150 -72.5230 66° East 528 608 37,000  Level FlightAware
12:44AM 45.0510 -72.4090 66° East 529 609 37,000  Level FlightAware
12:45AM 45.0830 -72.3080 66° East 529 609 37,000  Level FlightAware
12:45AM 45.1190 -72.1930 66° East 529 609 37,000  Level FlightAware
12:46AM 45.1520 -72.0850 67° East 529 609 37,000  Level FlightAware
12:46AM 45.1654 -72.0425 66° East 530 610 37,000  Level FlightAware ADS-B (CYSG)
12:47AM 45.2000 -71.9302 66° East 530 610 37,000  Level FlightAware ADS-B (CYSG)
12:48AM 45.2560 -71.7480 66° East 525 604 37,000  Level FlightAware
12:48AM 45.2316 -71.8271 246° West 530 610 37,000  Level FlightAware ADS-B (CYSG)
12:49AM 45.3210 -71.5350 66° East 525 604 37,000  Level FlightAware
12:49AM 45.3550 -71.4200 67° East 525 604 37,000  Level FlightAware
12:50AM 45.3860 -71.3200 66° East 525 604 37,000  Level FlightAware
12:50AM 45.4184 -71.2112 67° East 526 605 37,000  Level FlightAware ADS-B (CYSG)
12:51AM 45.4491 -71.1084 67° East 526 605 37,000  Level FlightAware ADS-B (CYSG)
12:52AM 45.4762 -71.0175 67° East 527 606 37,000  Level FlightAware ADS-B (CYSG)
12:52AM 45.5126 -70.8944 67° East 526 605 37,000  Level FlightAware ADS-B (CYSG)
12:53AM 45.5504 -70.7663 67° East 526 605 37,000  Level FlightAware ADS-B (CYSG)
12:53AM 45.5707 -70.6974 67° East 527 606 37,000  Level FlightAware ADS-B (CYSG)
12:54AM 45.6138 -70.5502 67° East 526 605 37,000  Level FlightAware ADS-B (CYSG)
12:55AM 45.6458 -70.4400 67° East 527 606 37,000  Level FlightAware ADS-B (CYSG)
12:55AM 45.6828 -70.3122 67° East 528 608 37,000  Level FlightAware ADS-B (CYSG)
12:56AM 45.7196 -70.1846 68° East 529 609 37,000  Level FlightAware ADS-B (CYSG)
12:56AM 45.7480 -70.0857 68° East 531 611 37,000  Level FlightAware ADS-B (CYSG)
12:57AM 45.7835 -69.9611 68° East 530 610 37,000  Level FlightAware ADS-B (CYSG)
12:58AM 45.8123 -69.8599 68° East 530 610 37,000  Level FlightAware ADS-B (CYSG)
12:58AM 45.8403 -69.7610 68° East 532 612 37,000  Level FlightAware ADS-B (CYSG)
12:59AM 45.8685 -69.6607 68° East 531 611 37,000  Level FlightAware ADS-B (CYSG)
12:59AM 45.8938 -69.5707 68° East 531 611 37,000  Level FlightAware ADS-B (CYSG)
01:00AM 45.9234 -69.4649 68° East 532 612 37,000  Level FlightAware ADS-B (CYSG)
01:00AM 45.9499 -69.3700 68° East 533 613 37,000  Level FlightAware ADS-B (CYSG)
01:01AM 45.9860 -69.2394 68° East 532 612 37,000  Level FlightAware ADS-B (CYSG)
01:01AM 46.0107 -69.1495 68° East 532 612 37,000  Level FlightAware ADS-B (CYSG)
01:02AM 46.0478 -69.0148 68° East 532 612 37,000  Level FlightAware ADS-B (CYSG)
01:02AM 46.0749 -68.9155 68° East 533 613 37,000  Level FlightAware ADS-B (CYSG)
01:03AM 46.1132 -68.7750 69° East 535 616 37,000  Level FlightAware ADS-B (CYSG)
01:04AM 46.1394 -68.6780 69° East 538 619 37,000  Level FlightAware ADS-B (CYSG)
01:04AM 46.1680 -68.5717 69° East 540 621 37,000  Level FlightAware ADS-B (CYSG)
01:05AM 46.1935 -68.4767 69° East 539 620 37,000  Level FlightAware ADS-B (CYSG)
01:05AM 46.2210 -68.3735 69° East 540 621 37,000  Level FlightAware ADS-B (CYSG)
01:06AM 46.2450 -68.2820 69° East 538 619 37,000  Level FlightAware
01:06AM 46.2651 -68.2072 69° East 540 621 37,000  Level FlightAware ADS-B (CYSG)
01:06AM 46.2926 -68.1035 69° East 542 624 37,000  Level FlightAware ADS-B (CYSG)
01:07AM 46.3270 -67.9724 69° East 543 625 37,000  Level FlightAware ADS-B (CYSG)
01:08AM 46.3536 -67.8707 69° East 545 627 37,000  Level FlightAware ADS-B (CYSG)
01:08AM 46.3900 -67.7309 69° East 547 629 37,000  Level FlightAware ADS-B (CYSG)
01:09AM 46.4104 -67.6522 69° East 548 631 37,000  Level FlightAware ADS-B (CYSG)
01:10AM 46.4605 -67.4569 70° East 548 631 37,000  Level FlightAware ADS-B (CYSG)
01:10AM 46.4885 -67.3476 70° East 548 631 37,000  Level FlightAware ADS-B (CYSG)
01:11AM 46.5310 -67.1870 69° East 547 629 37,000  Level FlightAware
01:12AM 46.5580 -67.0820 69° East 547 629 37,000  Level FlightAware
01:12AM 46.5860 -66.9770 69° East 547 629 37,000  Level FlightAware
01:13AM 46.6150 -66.8690 69° East 547 629 37,000  Level FlightAware
01:14AM 46.6420 -66.7630 70° East 547 629 37,000  Level FlightAware
01:14AM 46.6710 -66.6550 69° East 547 629 37,000  Level FlightAware
01:15AM 46.6990 -66.5500 69° East 547 629 37,000  Level FlightAware
01:15AM 46.7260 -66.4440 70° East 547 629 37,000  Level FlightAware
01:16AM 46.7540 -66.3390 69° East 547 629 37,000  Level FlightAware
01:17AM 46.7910 -66.1980 69° East 547 629 37,000  Level FlightAware
01:17AM 46.8190 -66.0920 69° East 547 629 37,000  Level FlightAware
01:18AM 46.8460 -65.9870 69° East 547 629 37,000  Level FlightAware
01:19AM 46.8750 -65.8780 69° East 547 629 37,000  Level FlightAware
01:19AM 46.9030 -65.7720 69° East 547 629 37,000  Level FlightAware
01:20AM 46.9300 -65.6660 70° East 547 629 37,000  Level FlightAware
01:21AM 47.0167 -65.1000 70° East 550 633 37,000  Level Gander Center
01:22AM 47.0667 -64.9167 68° East 560 644 37,000  Level Gander Center
01:23AM 47.1167 -64.6667 74° East 550 633 37,000  Level Gander Center
01:24AM 47.1667 -64.4833 68° East 560 644 37,000  Level Gander Center
01:25AM 47.2000 -64.2500 78° East 560 644 37,000  Level Gander Center
01:26AM 47.2667 -64.0333 66° East 560 644 37,000  Level Gander Center
01:27AM 47.3000 -63.8167 77° East 560 644 37,000  Level Gander Center
01:28AM 47.3500 -63.6000 71° East 570 656 37,000  Level Gander Center
01:29AM 47.4000 -63.3833 71° East 570 656 37,000  Level Gander Center
01:30AM 47.4500 -63.1333 73° East 570 656 37,000  Level Gander Center
01:31AM 47.5000 -62.9167 71° East 580 667 37,000  Level Gander Center
01:32AM 47.5333 -62.7000 77° East 580 667 37,000  Level Gander Center
01:33AM 47.5833 -62.4667 72° East 580 667 37,000  Level Gander Center
01:34AM 47.6500 -62.2167 68° East 580 667 37,000  Level Gander Center
01:35AM 47.6833 -62.0000 77° East 570 656 37,000  Level Gander Center
01:36AM 47.7333 -61.7833 71° East 570 656 37,000  Level Gander Center
01:37AM 47.7667 -61.5500 78° East 560 644 37,000  Level Gander Center
01:38AM 47.8167 -61.3333 71° East 560 644 37,000  Level Gander Center
01:39AM 47.8500 -61.1000 78° East 570 656 37,000  Level Gander Center
01:45AM 48.1090 -59.7950 78° East 562 647 37,000  Level FlightAware
01:45AM 48.1400 -59.6200 75° East 562 647 37,000  Level FlightAware
01:46AM 48.1710 -59.4410 75° East 562 647 37,000  Level FlightAware
01:47AM 48.1910 -59.3250 75° East 561 646 37,000  Level FlightAware
01:47AM 48.2190 -59.1570 76° East 554 638 37,000  Level FlightAware
01:48AM 48.2410 -59.0300 75° East 546 628 37,000  Level FlightAware
01:49AM 48.2630 -58.8990 76° East 543 625 37,000  Level FlightAware
01:49AM 48.2900 -58.7380 76° East 543 625 37,000  Level FlightAware
01:50AM 48.3170 -58.5740 76° East 543 625 37,000  Level FlightAware
01:51AM 48.3410 -58.4260 76° East 543 625 37,000  Level FlightAware
01:51AM 48.3600 -58.3070 76° East 545 627 37,000  Level FlightAware
01:52AM 48.3850 -58.1530 76° East 549 632 37,000  Level FlightAware
01:53AM 48.4040 -58.0290 77° East 546 628 37,000  Level FlightAware
01:53AM 48.4230 -57.9120 76° East 544 626 37,000 420 Level FlightAware
01:54AM 48.4440 -57.7980 74° East 536 617 37,500 840 Climbing FlightAware
01:54AM 48.4720 -57.6660 72° East 525 604 38,000 360 Climbing FlightAware
01:55AM 48.5050 -57.5250 70° East 522 601 38,000  Level FlightAware
01:55AM 48.5290 -57.4220 71° East 521 600 38,000  Level FlightAware
01:56AM 48.5550 -57.3130 70° East 519 597 38,000  Level FlightAware
01:57AM 48.5850 -57.1860 70° East 519 597 38,000  Level FlightAware
01:57AM 48.6170 -57.0490 70° East 518 596 38,000  Level FlightAware
01:58AM 48.6400 -56.9480 71° East 525 604 38,000  Level FlightAware
01:58AM 48.6690 -56.8270 70° East 522 601 38,000  Level FlightAware
01:59AM 48.7010 -56.6880 71° East 519 597 38,000  Level FlightAware
02:00AM 48.7280 -56.5690 71° East 519 597 38,000  Level FlightAware
02:00AM 48.7520 -56.4650 71° East 520 598 38,000  Level FlightAware
02:01AM 48.7790 -56.3440 71° East 523 602 38,000  Level FlightAware
02:01AM 48.8060 -56.2260 71° East 521 600 38,000  Level FlightAware
02:02AM 48.8370 -56.0850 71° East 523 602 38,000  Level FlightAware
02:02AM 48.8600 -55.9830 71° East 527 606 38,000  Level FlightAware
02:03AM 48.8910 -55.8420 71° East 527 606 38,000  Level FlightAware
02:04AM 48.9150 -55.7360 71° East 531 611 38,000  Level FlightAware
02:04AM 48.9410 -55.6140 72° East 533 613 38,000  Level FlightAware
02:05AM 48.9720 -55.4720 72° East 534 615 38,000  Level FlightAware
02:05AM 48.9990 -55.3460 72° East 533 613 38,000  Level FlightAware
02:06AM 49.0230 -55.2390 71° East 531 611 38,000  Level FlightAware
02:06AM 49.0490 -55.1150 72° East 529 609 38,000  Level FlightAware
02:07AM 49.0790 -54.9730 72° East 530 610 38,000  Level FlightAware
02:08AM 49.1060 -54.8480 72° East 534 615 38,000  Level FlightAware
02:08AM 49.1280 -54.7420 72° East 536 617 38,000  Level FlightAware
02:09AM 49.1540 -54.6140 73° East 537 618 38,000  Level FlightAware
02:09AM 49.1830 -54.4720 73° East 537 618 38,000  Level FlightAware
02:10AM 49.2100 -54.3420 72° East 538 619 38,000  Level FlightAware
02:11AM 49.2320 -54.2360 72° East 538 619 38,000  Level FlightAware
02:11AM 49.2690 -54.0520 73° East 538 619 38,000  Level FlightAware
02:12AM 49.2940 -53.9250 73° East 538 619 38,000  Level FlightAware
02:13AM 49.3190 -53.7990 73° East 537 618 38,000  Level FlightAware
02:13AM 49.3440 -53.6770 72° East 535 616 38,000  Level FlightAware
02:14AM 49.3700 -53.5420 73° East 534 615 38,000  Level FlightAware
02:14AM 49.3950 -53.4140 73° East 534 615 38,000  Level FlightAware
02:15AM 49.4200 -53.2870 73° East 534 615 38,000  Level FlightAware
02:15AM 49.4440 -53.1610 74° East 533 613 38,000  Level FlightAware
02:16AM 49.4680 -53.0360 73° East 534 615 38,000  Level FlightAware
02:17AM 49.4920 -52.9050 74° East 533 613 38,000  Level FlightAware
02:17AM 49.5150 -52.7850 74° East 532 612 38,000  Level FlightAware
02:18AM 49.5400 -52.6520 74° East 532 612 38,000  Level FlightAware
02:18AM 49.5630 -52.5270 74° East 529 609 38,000  Level FlightAware
02:19AM 49.5890 -52.3890 74° East 524 603 38,000  Level FlightAware
02:20AM 49.6130 -52.2550 75° East 523 602 38,000  Level FlightAware
02:20AM 49.6450 -52.0820 74° East 526 605 38,000  Level FlightAware
02:21AM 49.6680 -51.9520 75° East 528 608 38,000  Level FlightAware
02:22AM 49.6910 -51.8240 74° East 527 606 38,000  Level FlightAware
02:22AM 49.7120 -51.7060 75° East 526 605 38,000  Level FlightAware
02:23AM 49.7350 -51.5770 75° East 525 604 38,000  Level FlightAware
02:24AM 49.7590 -51.4430 74° East 525 604 38,000  Level FlightAware
02:24AM 49.7810 -51.3120 75° East 525 604 38,000  Level FlightAware
02:25AM 49.8080 -51.1550 75° East 524 603 38,000  Level FlightAware
02:26AM 49.8330 -50.9800 77° East 521 600 38,000  Level FlightAware
02:26AM 49.8460 -50.8550 81° East 521 600 38,000  Level FlightAware
02:27AM 49.8570 -50.7420 81° East 521 600 38,000  Level FlightAware
02:27AM 49.8850 -50.6000 73° East 522 601 38,000  Level FlightAware
02:28AM 49.9000 -50.4810 79° East 522 601 38,000  Level FlightAware
02:29AM 49.9150 -50.3650 79° East 522 601 38,000  Level FlightAware
02:29AM 49.9290 -50.2520 79° East 522 601 38,000  Level FlightAware
02:30AM 49.9430 -50.1370 79° East 522 601 38,000  Level FlightAware
02:30AM 49.9570 -50.0240 79° East 522 601 38,000  Level FlightAware
02:31AM 49.9720 -49.9050 79° East 522 601 38,000  Level FlightAware
02:32AM 49.9870 -49.7890 79° East 522 601 38,000  Level FlightAware
02:32AM 50.0010 -49.6760 79° East 522 601 38,000  Level FlightAware
02:33AM 50.0150 -49.5600 79° East 522 601 38,000  Level FlightAware
02:33AM 50.0290 -49.4470 79° East 522 601 38,000  Level FlightAware
02:34AM 50.0440 -49.3280 79° East 522 601 38,000  Level FlightAware
02:35AM 50.0580 -49.2150 79° East 522 601 38,000  Level FlightAware
02:35AM 50.0720 -49.1020 79° East 522 601 38,000  Level FlightAware
02:36AM 50.0860 -48.9890 79° East 522 601 38,000  Level FlightAware
02:36AM 50.1000 -48.8760 79° East 522 601 38,000  Level FlightAware
02:37AM 50.1150 -48.7590 79° East 522 601 38,000  Level FlightAware
02:38AM 50.1833 -48.2667 79° East 510 587 38,000  Level Gander Center
02:39AM 50.2333 -48.0333 71° East 520 598 38,000  Level Gander Center
02:40AM 50.2500 -47.8167 83° East 510 587 38,000  Level Gander Center
02:42AM 50.2814 -47.5782 78° East  Level FlightAware Approximate
02:49AM 50.4669 -46.0765 78° East  Level FlightAware Approximate
02:50AM 50.4918 -45.8611 80° East  Level FlightAware Approximate
02:51AM 50.5164 -45.6454 80° East  Level FlightAware Approximate
02:52AM 50.5405 -45.4295 80° East  Level FlightAware Approximate
02:53AM 50.5642 -45.2134 80° East  Level FlightAware Approximate
02:54AM 50.5876 -44.9970 80° East  Level FlightAware Approximate
02:55AM 50.6105 -44.7804 80° East  Level FlightAware Approximate
02:56AM 50.6330 -44.5637 81° East  Level FlightAware Approximate
02:57AM 50.6551 -44.3467 81° East  Level FlightAware Approximate
02:58AM 50.6768 -44.1295 81° East  Level FlightAware Approximate
02:59AM 50.6981 -43.9122 81° East  Level FlightAware Approximate
03:00AM 50.7191 -43.6946 81° East  Level FlightAware Approximate
03:01AM 50.7396 -43.4768 81° East  Level FlightAware Approximate
03:02AM 50.7597 -43.2589 82° East  Level FlightAware Approximate
03:03AM 50.7793 -43.0407 82° East  Level FlightAware Approximate
03:04AM 50.7986 -42.8224 82° East  Level FlightAware Approximate
03:05AM 50.8175 -42.6039 82° East  Level FlightAware Approximate
03:06AM 50.8359 -42.3845 83° East  Level FlightAware Approximate
03:07AM 50.8530 -42.1654 83° East  Level FlightAware Approximate
03:08AM 50.8698 -41.9463 83° East  Level FlightAware Approximate
03:09AM 50.8861 -41.7269 83° East  Level FlightAware Approximate
03:10AM 50.9020 -41.5074 83° East  Level FlightAware Approximate
03:11AM 50.9175 -41.2878 84° East  Level FlightAware Approximate
03:12AM 50.9326 -41.0680 84° East  Level FlightAware Approximate
03:13AM 50.9473 -40.8481 84° East  Level FlightAware Approximate
03:14AM 50.9616 -40.6280 84° East  Level FlightAware Approximate
03:15AM 50.9754 -40.4078 84° East  Level FlightAware Approximate
03:16AM 50.9889 -40.1875 84° East  Level FlightAware Approximate
03:17AM 51.0047 -39.9677 77° East  Level FlightAware Approximate
03:18AM 51.0358 -39.7518 77° East  Level FlightAware Approximate
03:19AM 51.0666 -39.5356 77° East  Level FlightAware Approximate
03:20AM 51.0969 -39.3191 77° East  Level FlightAware Approximate
03:21AM 51.1269 -39.1023 78° East  Level FlightAware Approximate
03:22AM 51.1564 -38.8852 78° East  Level FlightAware Approximate
03:23AM 51.1855 -38.6679 78° East  Level FlightAware Approximate
03:24AM 51.2143 -38.4502 78° East  Level FlightAware Approximate
03:25AM 51.2426 -38.2323 78° East  Level FlightAware Approximate
03:26AM 51.2705 -38.0142 78° East  Level FlightAware Approximate
03:27AM 51.2980 -37.7958 79° East  Level FlightAware Approximate
03:28AM 51.3251 -37.5771 79° East  Level FlightAware Approximate
03:29AM 51.3518 -37.3581 79° East  Level FlightAware Approximate
03:29AM 51.0000 -40.0000 77° East 503 579 39,000  Level ETMS Enhanced Traffic Management System
03:30AM 51.3781 -37.1390 79° East  Level FlightAware Approximate
03:31AM 51.4040 -36.9195 79° East  Level FlightAware Approximate
03:32AM 51.4295 -36.6998 79° East  Level FlightAware Approximate
03:33AM 51.4546 -36.4799 80° East  Level FlightAware Approximate
03:34AM 51.4792 -36.2597 80° East  Level FlightAware Approximate
03:35AM 51.5258 -35.8325 80° East 503 579 39,000  Level FlightAware Transoceanic
03:36AM 51.5493 -35.6106 80° East 503 579 39,000  Level FlightAware Transoceanic
03:37AM 51.5725 -35.3885 81° East 503 579 39,000  Level FlightAware Transoceanic
03:38AM 51.5952 -35.1662 81° East 503 579 39,000  Level FlightAware Transoceanic
03:39AM 51.6175 -34.9437 81° East 503 579 39,000  Level FlightAware Transoceanic
03:40AM 51.6393 -34.7210 81° East 503 579 39,000  Level FlightAware Transoceanic
03:41AM 51.6608 -34.4980 81° East 503 579 39,000  Level FlightAware Transoceanic
03:42AM 51.6818 -34.2748 81° East 503 579 39,000  Level FlightAware Transoceanic
03:43AM 51.7024 -34.0514 82° East 503 579 39,000  Level FlightAware Transoceanic
03:44AM 51.7225 -33.8278 82° East 503 579 39,000  Level FlightAware Transoceanic
03:45AM 51.7423 -33.6041 82° East 503 579 39,000  Level FlightAware Transoceanic
03:46AM 51.7616 -33.3801 82° East 503 579 39,000  Level FlightAware Transoceanic
03:47AM 51.7805 -33.1559 82° East 503 579 39,000  Level FlightAware Transoceanic
03:48AM 51.7990 -32.9316 83° East 503 579 39,000  Level FlightAware Transoceanic
03:49AM 51.8170 -32.7071 83° East 503 579 39,000  Level FlightAware Transoceanic
03:50AM 51.8346 -32.4823 83° East 503 579 39,000  Level FlightAware Transoceanic
03:51AM 51.8518 -32.2575 83° East 503 579 39,000  Level FlightAware Transoceanic
03:52AM 51.8686 -32.0324 83° East 503 579 39,000  Level FlightAware Transoceanic
03:53AM 51.8849 -31.8072 83° East 503 579 39,000  Level FlightAware Transoceanic
03:54AM 51.9008 -31.5818 84° East 503 579 39,000  Level FlightAware Transoceanic
03:55AM 51.9163 -31.3563 84° East 503 579 39,000  Level FlightAware Transoceanic
03:56AM 51.9313 -31.1306 84° East 503 579 39,000  Level FlightAware Transoceanic
03:57AM 51.9459 -30.9048 84° East 503 579 39,000  Level FlightAware Transoceanic
03:58AM 51.9601 -30.6788 84° East 503 579 39,000  Level FlightAware Transoceanic
03:59AM 51.9738 -30.4527 84° East 503 579 39,000  Level FlightAware Transoceanic
04:00AM 51.9871 -30.2264 85° East 503 579 39,000  Level FlightAware Transoceanic
04:01AM 51.9999 -30.0010 85° East  Level FlightAware Approximate
04:02AM 52.0129 -29.7756 85° East  Level FlightAware Approximate
04:03AM 52.0311 -29.7814 77° East  Level FlightAware Approximate
04:04AM 52.0621 -29.5605 77° East  Level FlightAware Approximate
04:05AM 52.0927 -29.3393 77° East  Level FlightAware Approximate
04:06AM 52.1229 -29.1177 77° East  Level FlightAware Approximate
04:07AM 52.1526 -28.8959 78° East  Level FlightAware Approximate
04:08AM 52.1820 -28.6738 78° East  Level FlightAware Approximate
04:08AM 52.0000 -30.0000 77° East 516 594 39,000  Level ETMS Enhanced Traffic Management System
04:09AM 52.2109 -28.4514 78° East  Level FlightAware Approximate
04:10AM 52.2394 -28.2287 78° East  Level FlightAware Approximate
04:11AM 52.2675 -28.0057 78° East  Level FlightAware Approximate
04:12AM 52.2951 -27.7825 78° East  Level FlightAware Approximate
04:13AM 52.3224 -27.5589 79° East  Level FlightAware Approximate
04:14AM 52.3908 -27.0272 79° East 516 594 39,000  Level FlightAware Transoceanic
04:15AM 52.4177 -26.7964 79° East 516 594 39,000  Level FlightAware Transoceanic
04:16AM 52.4442 -26.5654 79° East 516 594 39,000  Level FlightAware Transoceanic
04:17AM 52.4703 -26.3341 80° East 516 594 39,000  Level FlightAware Transoceanic
04:18AM 52.4959 -26.1025 80° East 516 594 39,000  Level FlightAware Transoceanic
04:19AM 52.5210 -25.8706 80° East 516 594 39,000  Level FlightAware Transoceanic
04:20AM 52.5457 -25.6385 80° East 516 594 39,000  Level FlightAware Transoceanic
04:21AM 52.5699 -25.4061 80° East 516 594 39,000  Level FlightAware Transoceanic
04:22AM 52.5937 -25.1734 81° East 516 594 39,000  Level FlightAware Transoceanic
04:23AM 52.6170 -24.9405 81° East 516 594 39,000  Level FlightAware Transoceanic
04:24AM 52.6399 -24.7074 81° East 516 594 39,000  Level FlightAware Transoceanic
04:25AM 52.6623 -24.4740 81° East 516 594 39,000  Level FlightAware Transoceanic
04:26AM 52.6843 -24.2404 81° East 516 594 39,000  Level FlightAware Transoceanic
04:27AM 52.7057 -24.0065 81° East 516 594 39,000  Level FlightAware Transoceanic
04:28AM 52.7268 -23.7725 82° East 516 594 39,000  Level FlightAware Transoceanic
04:29AM 52.7473 -23.5382 82° East 516 594 39,000  Level FlightAware Transoceanic
04:30AM 52.7674 -23.3036 82° East 516 594 39,000  Level FlightAware Transoceanic
04:31AM 52.7871 -23.0689 82° East 516 594 39,000  Level FlightAware Transoceanic
04:32AM 52.8063 -22.8340 82° East 516 594 39,000  Level FlightAware Transoceanic
04:33AM 52.8250 -22.5988 83° East 516 594 39,000  Level FlightAware Transoceanic
04:34AM 52.8432 -22.3634 83° East 516 594 39,000  Level FlightAware Transoceanic
04:35AM 52.8610 -22.1279 83° East 516 594 39,000  Level FlightAware Transoceanic
04:36AM 52.8783 -21.8922 83° East 516 594 39,000  Level FlightAware Transoceanic
04:37AM 52.8952 -21.6562 83° East 516 594 39,000  Level FlightAware Transoceanic
04:38AM 52.9116 -21.4202 84° East 516 594 39,000  Level FlightAware Transoceanic
04:39AM 52.9275 -21.1839 84° East 516 594 39,000  Level FlightAware Transoceanic
04:40AM 52.9429 -20.9474 84° East 516 594 39,000  Level FlightAware Transoceanic
04:41AM 52.9579 -20.7108 84° East 516 594 39,000  Level FlightAware Transoceanic
04:42AM 52.9724 -20.4740 84° East 516 594 39,000  Level FlightAware Transoceanic
04:43AM 52.9864 -20.2371 84° East 516 594 39,000  Level FlightAware Transoceanic
04:44AM 52.9996 -20.0066 84° East  Level FlightAware Approximate
04:45AM 53.0123 -19.7760 85° East  Level FlightAware Approximate
04:46AM 52.9993 -19.7817 90° East  Level FlightAware Approximate
04:47AM 52.9981 -19.5501 90° East  Level FlightAware Approximate
04:48AM 52.9965 -19.3186 91° East  Level FlightAware Approximate
04:49AM 52.9944 -19.0871 91° East  Level FlightAware Approximate
04:50AM 52.9919 -18.8556 91° East  Level FlightAware Approximate
04:51AM 52.9889 -18.6241 91° East  Level FlightAware Approximate
04:52AM 52.9855 -18.3927 91° East  Level FlightAware Approximate
04:53AM 52.9816 -18.1613 92° East  Level FlightAware Approximate
04:54AM 52.9772 -17.9300 92° East  Level FlightAware Approximate
04:55AM 52.9725 -17.6987 92° East  Level FlightAware Approximate
04:56AM 52.9672 -17.4675 92° East  Level FlightAware Approximate
04:57AM 52.9616 -17.2363 92° East  Level FlightAware Approximate
04:58AM 52.9554 -17.0052 92° East  Level FlightAware Approximate
04:59AM 52.9488 -16.7741 93° East  Level FlightAware Approximate
05:00AM 52.9418 -16.5431 93° East  Level FlightAware Approximate
05:01AM 52.9344 -16.3122 93° East  Level FlightAware Approximate
05:02AM 52.9264 -16.0814 93° East  Level FlightAware Approximate
05:03AM 52.9181 -15.8507 93° East  Level FlightAware Approximate
05:04AM 52.9093 -15.6200 94° East  Level FlightAware Approximate
05:05AM 52.9000 -15.3895 94° East  Level FlightAware Approximate
05:06AM 52.8903 -15.1591 94° East  Level FlightAware Approximate
05:07AM 52.8804 -14.9287 94° East  Level FlightAware Approximate
05:08AM 52.8707 -14.6983 94° East  Level FlightAware Approximate
05:09AM 52.8605 -14.4681 94° East  Level FlightAware Approximate
05:10AM 52.8499 -14.2380 94° East  Level FlightAware Approximate
05:11AM 52.8388 -14.0080 94° East  Level FlightAware Approximate
05:12AM 52.8273 -13.7781 95° East  Level FlightAware Approximate
05:13AM 52.8154 -13.5484 95° East  Level FlightAware Approximate
05:13AM 52.8620 -13.0980 95° East 504 580 39,000  Level FlightAware
05:14AM 52.8030 -13.3187 95° East  Level FlightAware Approximate
05:14AM 52.8530 -12.9540 96° East 502 578 39,000  Level FlightAware
05:14AM 52.8420 -12.8210 98° East 503 579 39,000  Level FlightAware
05:15AM 52.8310 -12.6730 97° East 505 581 39,000  Level FlightAware
05:16AM 52.8190 -12.5230 97° East 504 580 39,000  Level FlightAware
05:16AM 52.8080 -12.3810 97° East 503 579 39,000  Level FlightAware
05:17AM 52.7960 -12.2310 97° East 502 578 39,000  Level FlightAware
05:18AM 52.7850 -12.0840 97° East 501 577 39,000  Level FlightAware
05:18AM 52.7730 -11.9470 98° East 500 575 39,000  Level FlightAware
05:19AM 52.7640 -11.8320 97° East 500 575 39,000  Level FlightAware
05:19AM 52.7530 -11.7020 98° East 501 577 39,000  Level FlightAware
05:20AM 52.7420 -11.5700 98° East 500 575 39,000  Level FlightAware
05:21AM 52.7290 -11.4200 98° East 500 575 39,000  Level FlightAware
05:21AM 52.7190 -11.3030 98° East 500 575 39,000  Level FlightAware
05:22AM 52.7080 -11.1770 98° East 500 575 39,000  Level FlightAware
05:22AM 52.6960 -11.0480 99° East 500 575 39,000  Level FlightAware
05:23AM 52.6830 -10.9060 99° East 497 572 39,000  Level FlightAware
05:23AM 52.6720 -10.7780 98° East 496 571 39,000  Level FlightAware
05:24AM 52.6590 -10.6450 99° East 496 571 39,000  Level FlightAware
05:25AM 52.6470 -10.5160 99° East 496 571 39,000  Level FlightAware
05:25AM 52.6350 -10.3840 98° East 496 571 39,000  Level FlightAware
05:26AM 52.6220 -10.2550 99° East 497 572 39,000  Level FlightAware
05:26AM 52.6090 -10.1230 99° East 497 572 39,000  Level FlightAware
05:27AM 52.5940 -9.9710 99° East 498 573 39,000  Level FlightAware
05:28AM 52.5800 -9.8220 99° East 498 573 39,000  Level FlightAware
05:28AM 52.5672 -9.7001 100° East 499 574 39,000  Level FlightAware ADS-B
05:29AM 52.5561 -9.5913 100° East 499 574 39,000  Level FlightAware ADS-B
05:29AM 52.5448 -9.4819 100° East 499 574 39,000  Level FlightAware ADS-B
05:30AM 52.5324 -9.3636 100° East 498 573 39,000  Level FlightAware ADS-B
05:30AM 52.5200 -9.2455 100° East 498 573 39,000  Level FlightAware ADS-B
05:31AM 52.5086 -9.1385 100° East 499 574 39,000  Level FlightAware ADS-B
05:31AM 52.4915 -8.9789 100° East 488 562 39,000  Level FlightAware UK
05:32AM 52.4832 -8.9020 100° East 500 575 39,000  Level FlightAware ADS-B
05:32AM 52.4711 -8.7919 100° East 501 577 39,000 -420 Level FlightAware ADS-B
05:33AM 52.4571 -8.6655 100° East 501 577 38,600 -1,140 Descending FlightAware ADS-B
05:33AM 52.4422 -8.5307 100° East 488 562 37,800 -1,260 Descending FlightAware UK
05:34AM 52.4400 -8.5130 100° East 502 578 37,700 -1,080 Descending FlightAware
05:34AM 52.4358 -8.4746 100° East 502 578 37,500 -1,320 Descending FlightAware ADS-B
05:34AM 52.4201 -8.3362 100° East 502 578 36,700 -1,200 Descending FlightAware ADS-B
05:35AM 52.4066 -8.2181 101° East 500 575 36,200 -1,200 Descending FlightAware ADS-B
05:35AM 52.3928 -8.0983 101° East 499 574 35,500 -1,260 Descending FlightAware ADS-B
05:36AM 52.3792 -7.9824 101° East 499 574 34,900 -1,260 Descending FlightAware ADS-B
05:36AM 52.3661 -7.8701 101° East 499 574 34,200 -1,320 Descending FlightAware ADS-B
05:37AM 52.3533 -7.7621 101° East 498 573 33,600 -1,140 Descending FlightAware ADS-B
05:37AM 52.3394 -7.6470 101° East 494 568 33,100 -600 Descending FlightAware ADS-B
05:38AM 52.3258 -7.5347 101° East 494 568 33,000 -120 Descending FlightAware ADS-B
05:39AM 52.3084 -7.3916 101° East 493 567 33,000  Level FlightAware ADS-B
05:39AM 52.2937 -7.2678 101° East 490 564 33,000  Level FlightAware UK
05:39AM 52.2878 -7.2242 101° East 493 567 33,000  Level FlightAware ADS-B (EIDW / DUB)
05:40AM 52.2735 -7.1093 101° East 494 568 33,000  Level FlightAware ADS-B (EIDW / DUB)
05:41AM 52.2539 -6.9533 102° East 495 570 33,000  Level FlightAware ADS-B (EIDW / DUB)
05:41AM 52.2399 -6.8434 102° East 494 568 33,000  Level FlightAware ADS-B (EIDW / DUB)
05:42AM 52.2461 -6.8921 102° East 495 570 33,000  Level FlightAware ADS-B
05:42AM 52.2251 -6.7224 102° East 490 564 33,000  Level FlightAware UK
05:42AM 52.2114 -6.6216 102° East 494 568 33,000  Level FlightAware ADS-B (EIDW / DUB)
05:43AM 52.1974 -6.5097 101° East 493 567 33,000  Level FlightAware ADS-B
05:44AM 52.1690 -6.2875 101° East 492 566 33,000  Level FlightAware UK
05:44AM 52.1680 -6.2830 101° East 491 565 33,000  Level FlightAware
05:44AM 52.1615 -6.2369 103° East 492 566 33,000  Level FlightAware ADS-B (EGCW)
05:44AM 52.1456 -6.1202 102° East 492 566 33,000  Level FlightAware ADS-B (EGCW)
05:45AM 52.1283 -6.0127 105° East 490 564 33,000  Level FlightAware ADS-B (EGCW)
05:45AM 52.0968 -5.9097 116° Southeast 489 563 33,000  Level FlightAware ADS-B (EGCW)
05:46AM 52.0584 -5.7912 118° Southeast 488 562 33,000  Level FlightAware ADS-B (EGCW)
05:47AM 52.0278 -5.6950 117° Southeast 489 563 33,000  Level FlightAware ADS-B (EGCW)
05:47AM 51.9922 -5.5827 117° Southeast 486 559 33,000  Level FlightAware ADS-B (EGCW)
05:48AM 52.0119 -5.6449 297° West 483 556 33,000  Level FlightAware ADS-B
05:48AM 51.9245 -5.3645 297° West 488 562 33,000  Level FlightAware UK
05:48AM 51.9134 -5.3310 297° West 486 559 33,000  Level FlightAware ADS-B (EGCW)
05:49AM 51.8833 -5.2345 117° Southeast 487 560 33,000  Level FlightAware ADS-B (EGCW)
05:49AM 51.8525 -5.1356 117° Southeast 479 551 33,000  Level FlightAware ADS-B (EGCW)
05:50AM 51.8191 -5.0268 116° Southeast 461 531 33,000  Level FlightAware ADS-B (EGCW)
05:50AM 51.8024 -4.9723 116° Southeast 453 521 33,000  Level FlightAware ADS-B
05:51AM 51.7768 -4.8816 115° Southeast 458 527 33,000  Level FlightAware ADS-B (EGCW)
05:51AM 51.7778 -4.8861 290° West 458 527 33,000  Level FlightAware ADS-B (EGDX / DGX)
05:52AM 51.7441 -4.7035 107° East 456 525 33,000  Level FlightAware ADS-B (EGCW)
05:52AM 51.7389 -4.6677 103° East 458 527 33,000  Level FlightAware ADS-B (EGDX / DGX)
05:52AM 51.7270 -4.5779 102° East 458 527 33,000  Level FlightAware ADS-B (EGDX / DGX)
05:53AM 51.7124 -4.4675 102° East 457 526 33,000  Level FlightAware ADS-B
05:53AM 51.6994 -4.3685 102° East 457 526 33,000  Level FlightAware ADS-B
05:54AM 51.6859 -4.2677 102° East 457 526 33,000  Level FlightAware ADS-B
05:54AM 51.6734 -4.1745 102° East 459 528 33,000  Level FlightAware ADS-B
05:55AM 51.6581 -4.0609 102° East 461 531 33,000  Level FlightAware ADS-B
05:55AM 51.6451 -3.9640 102° East 462 532 33,000  Level FlightAware ADS-B
05:56AM 51.6325 -3.8703 102° East 461 531 33,000  Level FlightAware ADS-B
05:56AM 51.6190 -3.7724 102° East 460 529 33,000  Level FlightAware ADS-B (EGCW)
05:57AM 51.6057 -3.6739 102° East 460 529 33,000 -540 Level FlightAware ADS-B (EGCW)
05:57AM 51.5923 -3.5776 103° East 459 528 32,500 -1,080 Descending FlightAware ADS-B (EGDM)
05:58AM 51.5839 -3.5183 103° East 461 531 32,200 -1,500 Descending FlightAware ADS-B
05:58AM 51.5743 -3.4506 103° East 463 533 31,600 -1,200 Descending FlightAware ADS-B
05:59AM 51.5603 -3.3511 103° East 460 529 31,200 -960 Descending FlightAware ADS-B
05:59AM 51.5444 -3.2388 103° East 459 528 30,600 -1,080 Descending FlightAware ADS-B
05:59AM 51.5412 -3.2163 103° East 459 528 30,500 -960 Descending FlightAware ADS-B
06:00AM 51.5289 -3.1298 103° East 456 525 30,000 -1,020 Descending FlightAware ADS-B
06:00AM 51.5160 -3.0398 103° East 453 521 29,600 -1,380 Descending FlightAware ADS-B
06:01AM 51.5011 -2.9359 103° East 443 510 28,800 -1,320 Descending FlightAware ADS-B
06:01AM 51.4927 -2.8775 103° East 440 506 28,500 -1,020 Descending FlightAware ADS-B
06:01AM 51.4884 -2.8479 103° East 424 488 28,300 -1,080 Descending FlightAware ADS-B (EGCW)
06:01AM 51.4804 -2.7905 103° East 412 474 28,000 -900 Descending FlightAware ADS-B
06:01AM 51.4786 -2.7780 103° East 413 475 28,000 -600 Level FlightAware ADS-B
06:02AM 51.4765 -2.7625 102° East 408 470 27,900 -1,380 Descending FlightAware ADS-B
06:02AM 51.4663 -2.6879 102° East 393 452 27,300 -1,620 Descending FlightAware ADS-B
06:02AM 51.4643 -2.6732 102° East 391 450 27,100 -2,280 Descending FlightAware ADS-B
06:03AM 51.4542 -2.5972 102° East 384 442 26,100 -2,160 Descending FlightAware ADS-B
06:03AM 51.4530 -2.5878 102° East 383 441 26,000 -2,460 Descending FlightAware ADS-B (EGDX / DGX)
06:03AM 51.4426 -2.5098 102° East 378 435 24,800 -2,400 Descending FlightAware ADS-B
06:03AM 51.4422 -2.5071 103° East 377 434 24,800 -2,100 Level FlightAware ADS-B (EGDX / DGX)
06:03AM 51.4355 -2.4566 102° East 372 428 24,100 -2,340 Descending FlightAware ADS-B
06:04AM 51.4298 -2.4137 102° East 370 426 23,500 -2,340 Descending FlightAware ADS-B
06:04AM 51.4291 -2.4083 101° East 367 422 23,400 -2,340 Descending FlightAware ADS-B
06:04AM 51.4210 -2.3444 102° East 365 420 22,500 -2,400 Descending FlightAware ADS-B
06:04AM 51.4188 -2.3270 101° East 365 420 22,200 -2,700 Descending FlightAware ADS-B
06:04AM 51.4179 -2.3201 102° East 363 418 22,100 -2,160 Descending FlightAware ADS-B
06:04AM 51.4141 -2.2901 101° East 362 417 21,700 -2,340 Descending FlightAware ADS-B
06:05AM 51.4107 -2.2639 102° East 360 414 21,300 -2,400 Descending FlightAware ADS-B
06:05AM 51.4064 -2.2305 102° East 360 414 20,800 -2,340 Descending FlightAware ADS-B
06:05AM 51.4047 -2.2100 98° East 361 415 20,500 -1,920 Descending FlightAware ADS-B
06:05AM 51.4020 -2.1325 93° East 358 412 19,600 -1,800 Descending FlightAware ADS-B (EGDX / DGX)
06:05AM 51.4015 -2.1204 93° East 357 411 19,500 -1,980 Descending FlightAware ADS-B
06:06AM 51.3986 -2.0492 94° East 356 410 18,600 -1,980 Descending FlightAware ADS-B (EGDX / DGX)
06:06AM 51.3978 -2.0308 94° East 357 411 18,400 -1,740 Descending FlightAware ADS-B
06:06AM 51.3969 -2.0129 95° East 356 410 18,200 -1,500 Descending FlightAware ADS-B
06:07AM 51.3934 -1.9477 95° East 353 406 17,600 -1,440 Descending FlightAware ADS-B
06:07AM 51.3931 -1.9425 95° East 352 405 17,400 -1,440 Descending FlightAware ADS-B
06:07AM 51.3890 -1.8699 95° East 348 400 16,900 -1,440 Descending FlightAware ADS-B
06:07AM 51.3881 -1.8555 95° East 349 402 16,700 -1,380 Descending FlightAware ADS-B
06:08AM 51.3843 -1.7895 95° East 343 395 16,200 -1,380 Descending FlightAware ADS-B
06:08AM 51.3831 -1.7678 95° East 343 395 16,000 -1,380 Descending FlightAware ADS-B
06:08AM 51.3798 -1.7136 95° East 340 391 15,500 -1,620 Descending FlightAware ADS-B
06:08AM 51.3775 -1.6720 95° East 339 390 15,000 -1,560 Descending FlightAware ADS-B (EGDM)
06:09AM 51.3748 -1.6266 95° East 333 383 14,600 -1,200 Descending FlightAware ADS-B
06:09AM 51.3734 -1.6026 95° East 307 353 14,400 -1,200 Descending FlightAware ADS-B
06:09AM 51.3719 -1.5783 96° East 302 348 14,200 -1,320 Descending FlightAware ADS-B
06:09AM 51.3711 -1.5691 98° East 302 348 14,100 -840 Descending FlightAware ADS-B
06:10AM 51.3626 -1.5025 102° East 291 335 13,700 -780 Descending FlightAware ADS-B
06:10AM 51.3623 -1.5003 102° East 290 334 13,700 -780 Level FlightAware ADS-B (EGDM)
06:10AM 51.3530 -1.4373 103° East 288 331 13,300 -780 Descending FlightAware ADS-B
06:10AM 51.3530 -1.4373 178° South 288 331 13,300 -720 Level FlightAware ADS-B (EGDM)
06:10AM 51.3474 -1.4005 104° East 304 350 13,100 -660 Descending FlightAware ADS-B (EGWE)
06:11AM 51.3436 -1.3748 103° East 288 331 13,000 -720 Descending FlightAware ADS-B
06:11AM 51.3474 -1.4005 284° West 304 350 12,900 -780 Descending FlightAware ADS-B (EGWE)
06:11AM 51.3387 -1.3423 103° East 286 329 12,800 -720 Descending FlightAware ADS-B
06:11AM 51.3339 -1.3095 103° East 285 328 12,600 -600 Descending FlightAware ADS-B
06:11AM 51.3297 -1.2817 103° East 286 329 12,500 -600 Descending FlightAware ADS-B (EGDM)
06:12AM 51.3246 -1.2476 104° East 286 329 12,300 -840 Descending FlightAware ADS-B
06:12AM 51.3218 -1.2288 103° East 286 329 12,000 -720 Descending FlightAware ADS-B
06:12AM 51.3168 -1.1956 104° East 286 329 12,000  Level FlightAware ADS-B
06:12AM 51.3162 -1.1911 103° East 285 328 12,000 -480 Level FlightAware ADS-B
06:12AM 51.3137 -1.1672 99° East 289 333 11,900 -420 Descending FlightAware ADS-B
06:12AM 51.3133 -1.1609 95° East 289 333 11,900 -900 Level FlightAware ADS-B
06:13AM 51.3126 -1.1387 93° East 289 333 11,700 -900 Descending FlightAware ADS-B
06:13AM 51.3122 -1.0888 91° East 285 328 11,400 -600 Descending FlightAware ADS-B
06:13AM 51.3121 -1.0745 91° East 284 327 11,400 -720 Level FlightAware ADS-B
06:14AM 51.3119 -1.0159 90° East 282 325 11,000 -780 Descending FlightAware ADS-B
06:14AM 51.3119 -1.0109 90° East 281 323 11,000  Level FlightAware ADS-B
06:14AM 51.3113 -0.9488 91° East 278 320 11,000  Level FlightAware ADS-B
06:15AM 51.3106 -0.8871 91° East 280 322 11,000  Level FlightAware ADS-B
06:15AM 51.3107 -0.8929 272° West 280 322 11,000  Level FlightAware ADS-B
06:15AM 51.3100 -0.8243 91° East 283 326 11,000  Level FlightAware ADS-B
06:15AM 51.3098 -0.8138 91° East 283 326 11,000  Level FlightAware ADS-B
06:16AM 51.3092 -0.7581 91° East 285 328 11,000  Level FlightAware ADS-B
06:16AM 51.3091 -0.7476 91° East 284 327 11,000  Level FlightAware ADS-B
06:16AM 51.3084 -0.6947 91° East 285 328 11,000  Level FlightAware ADS-B
06:16AM 51.3083 -0.6834 91° East 285 328 11,000  Level FlightAware ADS-B
06:17AM 51.3076 -0.6315 91° East 283 326 11,000  Level FlightAware ADS-B
06:17AM 51.3074 -0.6185 91° East 283 326 11,000 -780 Level FlightAware ADS-B
06:17AM 51.3068 -0.5679 91° East 282 325 10,600 -1,200 Descending FlightAware ADS-B
06:17AM 51.3065 -0.5512 92° East 282 325 10,400 -1,200 Descending FlightAware ADS-B
06:18AM 51.3059 -0.5038 91° East 281 323 10,000 -840 Descending FlightAware ADS-B
06:18AM 51.3056 -0.4910 92° East 280 322 10,000  Level FlightAware ADS-B
06:18AM 51.3054 -0.4704 91° East 279 321 10,000  Level FlightAware ADS-B
06:18AM 51.3052 -0.4401 91° East 273 314 10,000  Level FlightAware ADS-B
06:18AM 51.3054 -0.4292 89° East 273 314 10,000  Level FlightAware ADS-B
06:19AM 51.3059 -0.3791 89° East 271 312 10,000  Level FlightAware ADS-B
06:19AM 51.3059 -0.3715 90° East 271 312 10,000 -780 Level FlightAware ADS-B
06:19AM 51.3060 -0.3460 90° East 270 311 9,800 -1,140 Descending FlightAware ADS-B
06:19AM 51.3059 -0.3404 91° East 270 311 9,700 -1,140 Descending FlightAware ADS-B
06:19AM 51.3051 -0.3243 95° East 266 306 9,600 -1,380 Descending FlightAware ADS-B
06:19AM 51.3047 -0.3212 101° East 266 306 9,500 -3,000 Descending FlightAware ADS-B
06:19AM 51.3060 -0.3400 276° West 264 304 9,400 -1,500 Descending FlightAware ADS-B (EGWE)
06:19AM 51.3033 -0.3142 99° East 264 304 9,400 -1,020 Level FlightAware ADS-B
06:19AM 51.3056 -0.3297 284° West 260 299 9,300 -1,020 Descending FlightAware ADS-B
06:19AM 51.2996 -0.3035 110° East 260 299 9,300 -1,200 Level FlightAware ADS-B
06:19AM 51.2966 -0.2975 129° Southeast 256 295 9,200 -1,200 Descending FlightAware ADS-B
06:20AM 51.2918 -0.2901 136° Southeast 252 290 9,100 -900 Descending FlightAware ADS-B
06:20AM 51.2912 -0.2894 147° Southeast 250 288 9,100 -780 Level FlightAware ADS-B
06:20AM 51.2847 -0.2828 147° Southeast 245 282 9,000 -600 Descending FlightAware ADS-B
06:20AM 51.2807 -0.2800 156° South 239 275 9,000  Level FlightAware ADS-B
06:20AM 51.2764 -0.2779 163° South 237 273 9,000  Level FlightAware ADS-B
06:20AM 51.3056 -0.3297 312° West 242 278 9,000  Level FlightAware ADS-B
06:20AM 51.2722 -0.2767 135° Southeast 234 269 9,000  Level FlightAware ADS-B
06:20AM 51.2692 -0.2763 175° South 233 268 9,000  Level FlightAware ADS-B
06:20AM 51.2649 -0.2764 181° South 231 266 9,000  Level FlightAware ADS-B
06:20AM 51.2592 -0.2776 188° South 218 251 9,000  Level FlightAware ADS-B
06:20AM 51.2522 -0.2812 198° South 224 258 9,000  Level FlightAware ADS-B
06:20AM 51.2527 -0.2809 21° North 223 257 9,000  Level FlightAware ADS-B
06:20AM 51.2461 -0.2865 208° Southwest 220 253 9,000  Level FlightAware ADS-B
06:20AM 51.2434 -0.2895 215° Southwest 220 253 9,000  Level FlightAware ADS-B
06:20AM 51.2442 -0.2885 37° Northeast 220 253 9,000  Level FlightAware ADS-B
06:20AM 51.2400 -0.2945 221° Southwest 215 247 9,000  Level FlightAware ADS-B
06:20AM 51.2365 -0.3009 229° Southwest 221 254 9,000  Level FlightAware ADS-B
06:21AM 51.2354 -0.3033 234° Southwest 221 254 9,000  Level FlightAware ADS-B
06:21AM 51.2334 -0.3082 237° Southwest 222 255 9,000  Level FlightAware ADS-B
06:21AM 51.2308 -0.3175 246° West 224 258 9,000  Level FlightAware ADS-B
06:21AM 51.2300 -0.3217 253° West 225 259 9,000  Level FlightAware ADS-B
06:21AM 51.2293 -0.3265 257° West 227 261 9,000  Level FlightAware ADS-B
06:21AM 51.2289 -0.3301 261° West 228 262 9,000  Level FlightAware ADS-B
06:21AM 51.2287 -0.3336 264° West 229 264 9,000  Level FlightAware ADS-B
06:21AM 51.2287 -0.3407 270° West 232 267 9,000  Level FlightAware ADS-B
06:21AM 51.2292 -0.3479 276° West 235 270 9,000  Level FlightAware ADS-B
06:21AM 51.2300 -0.3544 281° West 237 273 9,000  Level FlightAware ADS-B
06:21AM 51.2311 -0.3594 289° West 240 276 9,000  Level FlightAware ADS-B
06:21AM 51.2326 -0.3650 293° West 242 278 9,000  Level FlightAware ADS-B
06:21AM 51.2333 -0.3672 297° West 244 281 9,000  Level FlightAware ADS-B
06:21AM 51.2355 -0.3727 303° West 247 284 9,000  Level FlightAware ADS-B
06:21AM 51.2388 -0.3790 310° West 252 290 9,000  Level FlightAware ADS-B
06:21AM 51.2391 -0.3795 313° West 253 291 9,000  Level FlightAware ADS-B
06:21AM 51.2423 -0.3840 318° Northwest 256 295 9,000  Level FlightAware ADS-B
06:21AM 51.2459 -0.3883 323° Northwest 258 297 9,000  Level FlightAware ADS-B
06:21AM 51.2459 -0.3883 360° North 260 299 9,000  Level FlightAware ADS-B
06:22AM 51.2535 -0.3959 328° Northwest 261 300 9,000 -600 Level FlightAware ADS-B
06:22AM 51.2587 -0.4008 329° Northwest 263 303 8,900 -780 Descending FlightAware ADS-B
06:22AM 51.2694 -0.4106 330° Northwest 261 300 8,800 -600 Descending FlightAware ADS-B
06:22AM 51.2706 -0.4118 328° Northwest 261 300 8,800 -1,740 Level FlightAware ADS-B
06:22AM 51.2771 -0.4177 330° Northwest 259 298 8,600 -1,200 Descending FlightAware ADS-B
06:22AM 51.2865 -0.4262 331° Northwest 258 297 8,500 -660 Descending FlightAware ADS-B
06:22AM 51.2963 -0.4347 331° Northwest 258 297 8,400 -960 Descending FlightAware ADS-B
06:22AM 51.3004 -0.4377 335° Northwest 260 299 8,300 -900 Descending FlightAware ADS-B
06:22AM 51.3041 -0.4397 341° North 262 302 8,300 -600 Level FlightAware ADS-B
06:22AM 51.3113 -0.4419 349° North 267 307 8,200 -1,200 Descending FlightAware ADS-B
06:23AM 51.3163 -0.4421 358° North 270 311 8,100 -1,020 Descending FlightAware ADS-B
06:23AM 51.3198 -0.4418 North 271 312 8,100  Level FlightAware ADS-B
06:23AM 51.3238 -0.4408 North 273 314 8,100 -780 Level FlightAware ADS-B
06:23AM 51.3296 -0.4379 17° North 275 316 8,000 -600 Descending FlightAware ADS-B
06:23AM 51.3371 -0.4318 27° Northeast 276 318 8,000  Level FlightAware ADS-B
06:23AM 51.3404 -0.4280 36° Northeast 276 318 8,000  Level FlightAware ADS-B
06:23AM 51.3449 -0.4213 43° Northeast 276 318 8,000  Level FlightAware ADS-B
06:23AM 51.3479 -0.4157 50° Northeast 277 319 8,000  Level FlightAware ADS-B
06:23AM 51.3486 -0.4140 56° Northeast 277 319 8,000  Level FlightAware ADS-B
06:23AM 51.3517 -0.4060 58° Northeast 278 320 8,000 -720 Level FlightAware ADS-B
06:23AM 51.3537 -0.3984 67° East 278 320 7,900 -1,020 Descending FlightAware ADS-B
06:23AM 51.3545 -0.3950 70° East 278 320 7,900  Level FlightAware ADS-B
06:23AM 51.3496 -0.4116 245° Southwest 277 319 7,900 -900 Level FlightAware ADS-B (EGWE)
06:23AM 51.3567 -0.3815 69° East 277 319 7,800 -1,020 Descending FlightAware ADS-B
06:23AM 51.3571 -0.3787 79° East 276 318 7,800 -1,020 Level FlightAware ADS-B
06:23AM 51.3582 -0.3691 79° East 276 318 7,700 -1,140 Descending FlightAware ADS-B
06:24AM 51.3593 -0.3587 80° East 274 315 7,600 -720 Descending FlightAware ADS-B
06:24AM 51.3601 -0.3515 80° East 274 315 7,600  Level FlightAware ADS-B
06:24AM 51.3606 -0.3455 82° East 273 314 7,600 -1,020 Level FlightAware ADS-B
06:24AM 51.3613 -0.3279 86° East 270 311 7,400 -1,200 Descending FlightAware ADS-B
06:24AM 51.3614 -0.3251 87° East 270 311 7,400 -900 Level FlightAware ADS-B
06:24AM 51.3607 -0.3435 266° West 273 314 7,300 -720 Descending FlightAware ADS-B
06:24AM 51.3617 -0.3080 87° East 270 311 7,300 -720 Level FlightAware ADS-B
06:24AM 51.3619 -0.2953 88° East 270 311 7,200 -1,200 Descending FlightAware ADS-B
06:24AM 51.3624 -0.2678 88° East 269 310 6,900 -1,200 Descending FlightAware ADS-B
06:24AM 51.3624 -0.2646 89° East 269 310 6,900 -840 Level FlightAware ADS-B
06:25AM 51.3629 -0.2409 88° East 268 308 6,700 -1,200 Descending FlightAware ADS-B
06:25AM 51.3631 -0.2349 87° East 268 308 6,600 -1,020 Descending FlightAware ADS-B
06:25AM 51.3636 -0.2266 84° East 269 310 6,600 -480 Level FlightAware ADS-B
06:25AM 51.3656 -0.2090 80° East 270 311 6,500 -1,200 Descending FlightAware ADS-B
06:25AM 51.3658 -0.2070 78° East 271 312 6,400 -1,200 Descending FlightAware ADS-B
06:25AM 51.3671 -0.1984 77° East 271 312 6,400 -600 Level FlightAware ADS-B
06:25AM 51.3691 -0.1860 75° East 271 312 6,300 -1,200 Descending FlightAware ADS-B
06:25AM 51.3719 -0.1694 75° East 270 311 6,100 -1,320 Descending FlightAware ADS-B
06:25AM 51.3736 -0.1593 75° East 272 313 6,000 -1,200 Descending FlightAware ADS-B
06:25AM 51.3789 -0.1290 74° East 274 315 5,700 -1,020 Descending FlightAware ADS-B
06:26AM 51.3817 -0.1125 75° East 275 316 5,600 -1,200 Descending FlightAware ADS-B
06:26AM 51.3838 -0.0991 76° East 276 318 5,400 -1,380 Descending FlightAware ADS-B
06:26AM 51.3879 -0.0772 73° East 276 318 5,200 -840 Descending FlightAware ADS-B
06:26AM 51.3949 -0.0590 58° Northeast 269 310 5,100 -480 Descending FlightAware ADS-B
06:26AM 51.3981 -0.0536 46° Northeast 268 308 5,100 -780 Level FlightAware ADS-B
06:26AM 51.4019 -0.0488 38° Northeast 261 300 5,000 -720 Descending FlightAware ADS-B
06:26AM 51.4067 -0.0442 31° Northeast 251 289 5,000 -720 Level FlightAware ADS-B
06:26AM 51.4111 -0.0413 22° Northeast 244 281 4,900 -900 Descending FlightAware ADS-B
06:26AM 51.4129 -0.0403 19° North 240 276 4,900  Level FlightAware ADS-B
06:26AM 51.4157 -0.0392 14° North 235 270 4,900  Level FlightAware ADS-B
06:26AM 51.4162 -0.0390 12° North 234 269 4,900  Level FlightAware ADS-B
06:27AM 51.4220 -0.0376 North 229 264 4,900 -600 Level FlightAware ADS-B
06:27AM 51.4273 -0.0367 North 220 253 4,800 -1,020 Descending FlightAware ADS-B
06:27AM 51.4285 -0.0367 North 218 251 4,800  Level FlightAware ADS-B
06:27AM 51.4342 -0.0373 356° North 209 241 4,800  Level FlightAware ADS-B
06:27AM 51.4342 -0.0373 180° South 204 235 4,800 -1,020 Level FlightAware ADS-B
06:27AM 51.4395 -0.0398 344° North 202 232 4,700 -600 Descending FlightAware ADS-B
06:27AM 51.4438 -0.0438 330° Northwest 189 217 4,700 -600 Level FlightAware ADS-B
06:27AM 51.4462 -0.0475 316° Northwest 183 211 4,600 -720 Descending FlightAware ADS-B
06:27AM 51.4485 -0.0523 307° West 176 203 4,600  Level FlightAware ADS-B
06:27AM 51.4500 -0.0561 302° West 175 201 4,600 -480 Level FlightAware ADS-B
06:27AM 51.4536 -0.0678 296° West 173 199 4,500 -780 Descending FlightAware ADS-B
06:28AM 51.4574 -0.0809 295° West 175 201 4,300 -780 Descending FlightAware ADS-B
06:28AM 51.4591 -0.0869 295° West 175 201 4,300 -420 Level FlightAware ADS-B
06:28AM 51.4634 -0.1021 294° West 172 198 4,200 -780 Descending FlightAware ADS-B
06:28AM 51.4641 -0.1057 287° West 170 196 4,100 -720 Descending FlightAware ADS-B
06:28AM 51.4649 -0.1128 280° West 167 192 4,100  Level FlightAware ADS-B
06:28AM 51.4650 -0.1147 274° West 167 192 4,100 -900 Level FlightAware ADS-B
06:28AM 51.4652 -0.1206 273° West 166 191 4,000 -1,200 Descending FlightAware ADS-B
06:28AM 51.4653 -0.1275 271° West 165 190 3,900 -840 Descending FlightAware ADS-B
06:28AM 51.4653 -0.1391 270° West 168 193 3,800 -720 Descending FlightAware ADS-B
06:28AM 51.4653 -0.1483 270° West 169 194 3,700 -960 Descending FlightAware ADS-B
06:29AM 51.4654 -0.1704 270° West 169 194 3,400 -1,140 Descending FlightAware ADS-B
06:29AM 51.4655 -0.1818 270° West 168 193 3,200 -840 Descending FlightAware ADS-B
06:29AM 51.4655 -0.1903 271° West 168 193 3,200 -600 Level FlightAware ADS-B
06:29AM 51.4654 -0.2080 270° West 164 189 3,000 -1,140 Descending FlightAware ADS-B
06:29AM 51.4654 -0.2092 269° West 166 191 2,900 -1,080 Descending FlightAware ADS-B
06:29AM 51.4654 -0.2281 270° West 155 178 2,700 -960 Descending FlightAware ADS-B
06:30AM 51.4654 -0.2297 270° West 151 174 2,600 -780 Descending FlightAware ADS-B
06:30AM 51.4654 -0.2450 270° West 147 169 2,500 -540 Descending FlightAware ADS-B
06:30AM 51.4654 -0.2552 270° West 147 169 2,400 -900 Descending FlightAware ADS-B
06:30AM 51.4654 -0.2753 270° West 145 167 2,100 -960 Descending FlightAware ADS-B
06:30AM 51.4653 -0.2919 270° West 149 171 1,900 -600 Descending FlightAware ADS-B
06:31AM 51.4653 -0.3078 270° West 149 171 1,800 -780 Descending FlightAware ADS-B
06:31AM 51.4652 -0.3424 270° West 134 154 1,300 -780 Descending FlightAware ADS-B
06:32AM 51.4651 -0.3658 270° West 138 159 1,100 -660 Descending FlightAware ADS-B
06:32AM 51.4651 -0.3861 270° West 142 163 800 -720 Descending FlightAware ADS-B
06:33AM 51.4650 -0.4170 270° West 142 163 500 -480 Descending FlightAware
06:33AM 51.4650 -0.4520 270° West 142 163 300 -360 Descending FlightAware